createdAt,value
2023-03-10T00:02:54.129Z,3.90
2023-03-10T00:05:56.080Z,3.99
2023-03-10T00:08:59.344Z,4.04
2023-03-10T00:12:02.993Z,4.18
2023-03-10T00:15:07.524Z,4.22
2023-03-10T00:18:09.398Z,4.20
2023-03-10T00:21:13.718Z,4.30
2023-03-10T00:24:15.560Z,4.30
2023-03-10T00:27:17.365Z,4.38
2023-03-10T00:30:20.720Z,4.42
2023-03-10T00:33:22.604Z,4.49
2023-03-10T00:36:26.881Z,4.49
2023-03-10T00:39:28.826Z,4.59
2023-03-10T00:42:30.508Z,4.68
2023-03-10T00:45:34.779Z,4.74
2023-03-10T00:48:37.083Z,4.79
2023-03-10T00:51:38.908Z,4.80
2023-03-10T00:54:44.786Z,4.85
2023-03-10T00:57:48.705Z,4.92
2023-03-10T01:00:53.864Z,5.03
2023-03-10T01:03:56.702Z,5.00
2023-03-10T01:06:59.115Z,4.99
2023-03-10T01:10:00.842Z,5.05
2023-03-10T01:13:02.465Z,5.12
2023-03-10T01:16:06.021Z,5.15
2023-03-10T01:19:08.257Z,5.07
2023-03-10T01:22:10.148Z,5.05
2023-03-10T01:25:13.447Z,5.04
2023-03-10T01:28:15.405Z,5.04
2023-03-10T01:31:18.696Z,5.05
2023-03-10T01:34:20.479Z,5.11
2023-03-10T01:37:22.078Z,5.18
2023-03-10T01:40:23.843Z,5.20
2023-03-10T01:43:30.339Z,5.21
2023-03-10T01:46:38.805Z,5.18
2023-03-10T01:50:08.628Z,5.16
2023-03-10T01:53:10.779Z,5.11
2023-03-10T01:56:12.998Z,5.19
2023-03-10T01:59:15.140Z,5.36
2023-03-10T02:02:18.928Z,5.45
2023-03-10T02:05:21.012Z,5.41
2023-03-10T02:08:23.652Z,5.51
2023-03-10T02:11:26.189Z,5.55
2023-03-10T02:14:28.356Z,5.54
2023-03-10T02:17:31.793Z,5.57
2023-03-10T02:20:39.318Z,5.66
2023-03-10T02:23:51.397Z,5.83
2023-03-10T02:27:02.342Z,5.83
2023-03-10T02:30:07.052Z,5.79
2023-03-10T02:33:12.737Z,5.78
2023-03-10T02:36:15.853Z,5.80
2023-03-10T02:39:19.106Z,5.84
2023-03-10T02:42:23.060Z,5.91
2023-03-10T02:45:28.552Z,5.86
2023-03-10T02:48:32.096Z,5.95
2023-03-10T02:51:35.978Z,5.89
2023-03-10T02:54:42.778Z,5.94
2023-03-10T02:57:44.677Z,5.94
2023-03-10T03:00:49.269Z,6.00
2023-03-10T03:03:52.095Z,5.99
2023-03-10T03:06:54.209Z,5.97
2023-03-10T03:09:56.622Z,6.06
2023-03-10T03:12:58.293Z,6.06
2023-03-10T03:16:02.283Z,6.12
2023-03-10T03:19:04.450Z,6.06
2023-03-10T03:22:06.078Z,6.06
2023-03-10T03:25:11.353Z,6.15
2023-03-10T03:28:13.382Z,6.20
2023-03-10T03:31:19.964Z,6.18
2023-03-10T03:34:22.787Z,6.22
2023-03-10T03:37:27.821Z,6.18
2023-03-10T03:40:33.624Z,6.29
2023-03-10T03:43:36.879Z,6.36
2023-03-10T03:46:40.467Z,6.40
2023-03-10T03:49:42.483Z,6.46
2023-03-10T03:52:46.947Z,6.51
2023-03-10T03:55:51.453Z,6.58
2023-03-10T03:58:57.890Z,6.70
2023-03-10T04:02:00.936Z,6.66
2023-03-10T04:05:04.835Z,6.57
2023-03-10T04:08:07.576Z,6.57
2023-03-10T04:11:09.317Z,6.53
2023-03-10T04:14:15.030Z,6.52
2023-03-10T04:17:18.636Z,6.56
2023-03-10T04:20:21.310Z,6.53
2023-03-10T04:23:25.290Z,6.47
2023-03-10T04:26:27.575Z,6.41
2023-03-10T04:29:29.326Z,6.36
2023-03-10T04:32:34.636Z,6.34
2023-03-10T04:35:39.703Z,6.37
2023-03-10T04:38:41.477Z,6.33
2023-03-10T04:41:43.319Z,6.29
2023-03-10T04:44:45.816Z,6.29
2023-03-10T04:47:48.996Z,6.26
2023-03-10T04:50:57.204Z,6.27
2023-03-10T04:54:00.566Z,6.23
2023-03-10T04:57:05.858Z,6.21
2023-03-10T05:00:09.020Z,6.21
2023-03-10T05:03:12.479Z,6.19
2023-03-10T05:06:15.747Z,6.17
2023-03-10T05:09:20.988Z,6.16
2023-03-10T05:12:23.922Z,6.13
2023-03-10T05:15:25.897Z,6.09
2023-03-10T05:18:29.288Z,6.08
2023-03-10T05:21:32.123Z,6.05
2023-03-10T05:24:34.350Z,6.03
2023-03-10T05:27:36.958Z,6.03
2023-03-10T05:30:39.460Z,6.00
2023-03-10T05:33:43.007Z,6.00
2023-03-10T05:36:45.509Z,5.99
2023-03-10T05:39:47.476Z,5.97
2023-03-10T05:42:53.994Z,5.98
2023-03-10T05:45:57.980Z,5.97
2023-03-10T05:49:02.706Z,5.97
2023-03-10T05:52:06.118Z,5.96
2023-03-10T05:55:11.941Z,5.95
2023-03-10T05:58:14.120Z,5.97
2023-03-10T06:01:15.999Z,5.96
2023-03-10T06:04:19.096Z,5.97
2023-03-10T06:07:21.208Z,6.00
2023-03-10T06:10:22.859Z,6.01
2023-03-10T06:13:24.894Z,6.00
2023-03-10T06:16:26.777Z,6.02
2023-03-10T06:19:30.258Z,6.03
2023-03-10T06:22:31.930Z,6.06
2023-03-10T06:25:33.528Z,6.06
2023-03-10T06:28:37.009Z,6.09
2023-03-10T06:31:38.930Z,6.10
2023-03-10T06:34:46.532Z,6.14
2023-03-10T06:37:48.336Z,6.13
2023-03-10T06:40:50.166Z,6.15
2023-03-10T06:43:52.040Z,6.17
2023-03-10T06:46:53.845Z,6.19
2023-03-10T06:49:56.867Z,6.24
2023-03-10T06:52:58.433Z,6.29
2023-03-10T06:56:01.201Z,6.33
2023-03-10T06:59:02.946Z,6.39
2023-03-10T07:02:04.769Z,6.42
2023-03-10T07:05:10.560Z,6.48
2023-03-10T07:08:12.240Z,6.53
2023-03-10T07:11:14.631Z,6.59
2023-03-10T07:14:16.601Z,6.62
2023-03-10T07:17:18.394Z,6.66
2023-03-10T07:20:22.291Z,6.68
2023-03-10T07:23:34.735Z,6.69
2023-03-10T07:26:36.473Z,6.74
2023-03-10T07:29:38.031Z,6.78
2023-03-10T07:32:39.798Z,6.78
2023-03-10T07:35:43.081Z,6.80
2023-03-10T07:38:44.783Z,6.82
2023-03-10T07:41:46.523Z,6.83
2023-03-10T07:44:48.360Z,6.85
2023-03-10T07:47:50.321Z,6.92
2023-03-10T07:50:57.199Z,6.95
2023-03-10T07:53:58.746Z,6.95
2023-03-10T07:57:00.346Z,6.94
2023-03-10T08:00:02.287Z,6.95
2023-03-10T08:03:13.521Z,6.97
2023-03-10T08:06:20.671Z,6.95
2023-03-10T08:09:22.248Z,6.94
2023-03-10T08:12:24.653Z,6.90
2023-03-10T08:15:26.419Z,6.91
2023-03-10T08:18:29.597Z,6.98
2023-03-10T08:21:32.912Z,6.96
2023-03-10T08:24:34.621Z,6.99
2023-03-10T08:27:36.659Z,6.98
2023-03-10T08:30:52.454Z,7.01
2023-03-10T08:34:01.669Z,7.02
2023-03-10T08:37:05.038Z,7.02
2023-03-10T08:40:08.193Z,7.02
2023-03-10T08:43:10.015Z,7.02
2023-03-10T08:46:12.461Z,7.03
2023-03-10T08:49:15.080Z,7.02
2023-03-10T08:52:18.536Z,7.02
2023-03-10T08:55:20.332Z,7.06
2023-03-10T08:58:23.298Z,7.14
2023-03-10T09:01:25.981Z,7.18
2023-03-10T09:04:27.594Z,7.19
2023-03-10T09:07:30.664Z,7.23
2023-03-10T09:10:32.400Z,7.25
2023-03-10T09:13:34.203Z,7.34
2023-03-10T09:16:36.417Z,7.39
2023-03-10T09:19:38.454Z,7.44
2023-03-10T09:22:41.453Z,7.44
2023-03-10T09:25:43.200Z,7.44
2023-03-10T09:28:44.987Z,7.47
2023-03-10T09:31:48.314Z,7.47
2023-03-10T09:34:50.749Z,7.51
2023-03-10T09:37:53.901Z,7.54
2023-03-10T09:41:00.189Z,7.59
2023-03-10T09:44:03.193Z,7.65
2023-03-10T09:47:20.105Z,7.73
2023-03-10T09:50:27.308Z,7.88
2023-03-10T09:53:40.211Z,7.97
2023-03-10T09:56:42.200Z,7.99
2023-03-10T09:59:45.549Z,8.00
2023-03-10T10:02:49.108Z,8.00
2023-03-10T10:05:52.345Z,8.04
2023-03-10T10:09:04.170Z,8.03
2023-03-10T10:12:10.953Z,8.03
2023-03-10T10:15:14.776Z,8.00
2023-03-10T10:18:25.564Z,7.94
2023-03-10T10:21:41.825Z,7.59
2023-03-10T10:24:53.221Z,7.38
2023-03-10T10:27:55.655Z,7.25
2023-03-10T10:31:12.859Z,7.20
2023-03-10T10:34:19.887Z,7.20
2023-03-10T10:37:23.651Z,7.12
2023-03-10T10:40:28.571Z,7.12
2023-03-10T10:43:30.953Z,7.15
2023-03-10T10:46:33.060Z,7.14
2023-03-10T10:49:36.526Z,7.11
2023-03-10T10:52:38.456Z,7.17
2023-03-10T10:55:43.089Z,7.27
2023-03-10T10:58:45.879Z,7.64
2023-03-10T11:01:49.518Z,7.83
2023-03-10T11:04:51.277Z,7.97
2023-03-10T11:07:54.429Z,8.23
2023-03-10T11:10:59.750Z,8.47
2023-03-10T11:14:06.161Z,8.51
2023-03-10T11:17:12.597Z,8.58
2023-03-10T11:20:19.533Z,8.60
2023-03-10T11:23:26.227Z,8.69
2023-03-10T11:26:35.592Z,8.92
2023-03-10T11:29:45.390Z,8.94
2023-03-10T11:32:54.219Z,8.84
2023-03-10T11:36:01.064Z,8.70
2023-03-10T11:39:06.313Z,8.59
2023-03-10T11:42:11.533Z,8.49
2023-03-10T11:45:21.850Z,8.41
2023-03-10T11:48:41.657Z,8.34
2023-03-10T11:51:45.497Z,8.29
2023-03-10T11:54:49.356Z,8.26
2023-03-10T11:57:56.425Z,8.31
2023-03-10T12:00:58.629Z,8.41
2023-03-10T12:04:03.021Z,8.30
2023-03-10T12:07:09.761Z,8.08
2023-03-10T12:10:14.812Z,7.84
2023-03-10T12:13:23.570Z,7.84
2023-03-10T12:16:27.069Z,7.84
2023-03-10T12:19:28.657Z,7.85
2023-03-10T12:22:39.617Z,7.92
2023-03-10T12:25:45.979Z,7.99
2023-03-10T12:28:49.120Z,8.00
2023-03-10T12:31:51.803Z,7.85
2023-03-10T12:35:08.380Z,7.72
2023-03-10T12:38:29.774Z,7.59
2023-03-10T12:41:48.017Z,7.50
2023-03-10T12:44:53.166Z,7.45
2023-03-10T12:47:59.371Z,7.50
2023-03-10T12:51:02.909Z,7.50
2023-03-10T12:54:14.853Z,7.55
2023-03-10T12:57:19.365Z,7.58
2023-03-10T13:00:28.823Z,7.56
2023-03-10T13:03:32.558Z,7.47
2023-03-10T13:06:37.085Z,7.45
2023-03-10T13:09:44.649Z,7.44
2023-03-10T13:12:48.151Z,7.49
2023-03-10T13:15:58.981Z,7.50
2023-03-10T13:19:01.567Z,7.60
2023-03-10T13:22:04.846Z,7.63
2023-03-10T13:25:07.662Z,7.66
2023-03-10T13:28:15.126Z,7.75
2023-03-10T13:31:20.035Z,7.80
2023-03-10T13:34:22.567Z,7.86
2023-03-10T13:37:24.665Z,7.90
2023-03-10T13:40:26.222Z,7.99
2023-03-10T13:43:34.021Z,8.01
2023-03-10T13:46:37.101Z,7.77
2023-03-10T13:49:38.884Z,7.55
2023-03-10T13:52:51.823Z,7.39
2023-03-10T13:55:53.401Z,7.36
2023-03-10T13:58:56.104Z,7.34
2023-03-10T14:02:00.129Z,7.33
2023-03-10T14:05:01.769Z,7.32
2023-03-10T14:08:03.985Z,7.36
2023-03-10T14:11:29.277Z,7.10
2023-03-10T14:14:31.888Z,7.01
2023-03-10T14:17:35.409Z,6.96
2023-03-10T14:20:38.223Z,6.83
2023-03-10T14:23:40.257Z,6.62
2023-03-10T14:26:42.329Z,6.42
2023-03-10T14:29:49.216Z,6.33
2023-03-10T14:32:53.933Z,6.25
2023-03-10T14:35:55.696Z,6.07
2023-03-10T14:38:57.320Z,5.93
2023-03-10T14:41:58.994Z,5.80
2023-03-10T14:45:04.181Z,5.67
2023-03-10T14:48:12.622Z,5.69
2023-03-10T14:51:28.882Z,5.77
2023-03-10T14:54:34.439Z,5.80
2023-03-10T14:57:37.176Z,5.92
2023-03-10T15:00:39.109Z,5.88
2023-03-10T15:03:43.301Z,5.90
2023-03-10T15:06:45.005Z,5.94
2023-03-10T15:09:46.667Z,5.91
2023-03-10T15:12:48.832Z,5.89
2023-03-10T15:15:51.053Z,5.90
2023-03-10T15:18:54.166Z,5.91
2023-03-10T15:21:55.839Z,5.93
2023-03-10T15:24:57.489Z,5.86
2023-03-10T15:27:59.236Z,5.83
2023-03-10T15:31:00.805Z,5.71
2023-03-10T15:34:03.834Z,5.63
2023-03-10T15:37:07.424Z,5.50
2023-03-10T15:40:12.934Z,5.47
2023-03-10T15:43:14.732Z,5.43
2023-03-10T15:46:16.426Z,5.46
2023-03-10T15:49:19.488Z,5.52
2023-03-10T15:52:23.558Z,5.55
2023-03-10T15:55:25.917Z,5.43
2023-03-10T15:58:27.573Z,5.41
2023-03-10T16:01:29.352Z,5.16
2023-03-10T16:04:32.738Z,5.09
2023-03-10T16:07:34.556Z,5.05
2023-03-10T16:10:37.088Z,4.99
2023-03-10T16:13:38.675Z,4.90
2023-03-10T16:16:40.268Z,4.84
2023-03-10T16:19:43.376Z,4.72
2023-03-10T16:22:45.729Z,4.60
2023-03-10T16:26:01.823Z,4.59
2023-03-10T16:29:03.353Z,4.64
2023-03-10T16:32:05.325Z,4.64
2023-03-10T16:35:09.068Z,4.66
2023-03-10T16:38:10.789Z,4.73
2023-03-10T16:41:12.557Z,4.76
2023-03-10T16:44:15.547Z,4.82
2023-03-10T16:47:18.060Z,4.87
2023-03-10T16:50:21.252Z,4.82
2023-03-10T16:56:37.928Z,4.69
2023-03-10T16:59:41.183Z,4.58
2023-03-10T17:02:42.989Z,4.55
2023-03-10T17:05:46.425Z,4.47
2023-03-10T17:08:48.922Z,4.56
2023-03-10T17:11:54.974Z,4.63
2023-03-10T17:14:58.046Z,4.61
2023-03-10T17:18:00.036Z,4.58
2023-03-10T17:21:11.156Z,4.42
2023-03-10T17:24:13.294Z,4.25
2023-03-10T17:27:15.144Z,4.18
2023-03-10T17:30:19.157Z,4.16
2023-03-10T17:33:20.917Z,4.10
2023-03-10T17:36:24.600Z,4.15
2023-03-10T17:39:27.743Z,4.15
2023-03-10T17:42:29.452Z,4.16
2023-03-10T17:45:31.168Z,4.14
2023-03-10T17:48:33.454Z,4.20
2023-03-10T17:51:39.087Z,4.29
2023-03-10T17:54:40.722Z,4.41
2023-03-10T17:57:42.533Z,4.47
2023-03-10T18:00:44.569Z,4.57
2023-03-10T18:03:48.204Z,4.73
2023-03-10T18:06:51.611Z,4.86
2023-03-10T18:09:53.870Z,4.93
2023-03-10T18:12:57.680Z,5.04
2023-03-10T18:15:59.662Z,5.12
2023-03-10T18:19:02.076Z,5.15
2023-03-10T18:22:05.862Z,5.18
2023-03-10T18:25:07.624Z,5.21
2023-03-10T18:28:11.754Z,5.21
2023-03-10T18:31:16.755Z,5.22
2023-03-10T18:34:19.509Z,5.23
2023-03-10T18:37:22.462Z,5.22
2023-03-10T18:40:24.127Z,5.22
2023-03-10T18:43:26.496Z,5.21
2023-03-10T18:46:28.259Z,5.22
2023-03-10T18:49:30.311Z,5.23
2023-03-10T18:52:33.429Z,5.17
2023-03-10T18:55:39.008Z,4.76
2023-03-10T18:58:40.657Z,4.10
2023-03-10T19:01:42.319Z,3.39
2023-03-10T19:04:47.934Z,3.03
2023-03-10T19:07:51.472Z,2.82
2023-03-10T19:10:59.671Z,2.65
2023-03-10T19:14:01.464Z,2.19
2023-03-10T19:17:03.291Z,1.50
2023-03-10T19:20:07.704Z,1.04
2023-03-10T19:23:10.565Z,0.75
2023-03-10T19:26:12.267Z,0.50
2023-03-10T19:29:13.771Z,0.33
2023-03-10T19:32:15.459Z,0.11
2023-03-10T19:35:18.757Z,-0.08
2023-03-10T19:38:21.726Z,-0.12
2023-03-10T19:41:23.650Z,-0.23
2023-03-10T19:44:27.299Z,-0.34
2023-03-10T19:47:30.049Z,-0.44
2023-03-10T19:50:31.563Z,-0.47
2023-03-10T19:53:35.491Z,-0.53
2023-03-10T19:56:38.785Z,-0.54
2023-03-10T19:59:43.117Z,-0.56
2023-03-10T20:02:44.838Z,-0.63
2023-03-10T20:05:47.549Z,-0.67
2023-03-10T20:08:51.487Z,-0.69
2023-03-10T20:11:53.217Z,-0.68
2023-03-10T20:14:58.740Z,-0.71
2023-03-10T20:18:01.091Z,-0.69
2023-03-10T20:21:03.217Z,-0.72
2023-03-10T20:24:06.852Z,-0.77
2023-03-10T20:27:08.590Z,-0.72
2023-03-10T20:30:13.016Z,-0.74
2023-03-10T20:33:14.635Z,-0.77
2023-03-10T20:36:16.261Z,-0.77
2023-03-10T20:39:19.740Z,-0.77
2023-03-10T20:42:21.307Z,-0.80
2023-03-10T20:45:23.272Z,-0.84
2023-03-10T20:48:24.870Z,-0.88
2023-03-10T20:51:26.555Z,-0.87
2023-03-10T20:54:29.703Z,-0.88
2023-03-10T20:57:31.551Z,-0.93
2023-03-10T21:00:33.335Z,-0.89
2023-03-10T21:03:35.310Z,-0.91
2023-03-10T21:06:37.548Z,-0.93
2023-03-10T21:09:40.594Z,-0.89
2023-03-10T21:12:43.236Z,-0.90
2023-03-10T21:15:45.029Z,-0.93
2023-03-10T21:18:46.716Z,-0.91
2023-03-10T21:21:48.406Z,-0.93
2023-03-10T21:24:52.713Z,-0.93
2023-03-10T21:27:58.710Z,-0.94
2023-03-10T21:31:00.628Z,-0.95
2023-03-10T21:34:03.211Z,-1.02
2023-03-10T21:37:04.837Z,-1.02
2023-03-10T21:40:09.989Z,-1.05
2023-03-10T21:43:11.506Z,-1.07
2023-03-10T21:46:13.243Z,-1.05
2023-03-10T21:49:15.946Z,-1.01
2023-03-10T21:52:18.262Z,-1.05
2023-03-10T21:55:23.999Z,-1.08
2023-03-10T21:58:26.091Z,-1.03
2023-03-10T22:01:28.098Z,-1.08
2023-03-10T22:04:30.631Z,-1.02
2023-03-10T22:07:32.705Z,-1.01
2023-03-10T22:10:35.758Z,-1.02
2023-03-10T22:13:38.049Z,-1.00
2023-03-10T22:16:39.906Z,-1.03
2023-03-10T22:19:41.813Z,-1.04
2023-03-10T22:22:43.588Z,-1.03
2023-03-10T22:25:46.870Z,-1.01
2023-03-10T22:28:48.682Z,-1.03
2023-03-10T22:31:51.995Z,-1.08
2023-03-10T22:34:53.594Z,-1.04
2023-03-10T22:37:55.378Z,-1.03
2023-03-10T22:40:58.520Z,-1.00
2023-03-10T22:44:00.109Z,-0.99
2023-03-10T22:47:02.198Z,-1.01
2023-03-10T22:50:04.714Z,-1.01
2023-03-10T22:53:07.456Z,-1.03
2023-03-10T22:56:10.566Z,-1.00
2023-03-10T23:02:25.885Z,-0.96
2023-03-10T23:08:41.755Z,-0.96
2023-03-10T23:11:46.792Z,-1.00
2023-03-10T23:14:48.449Z,-0.97
2023-03-10T23:18:15.395Z,-0.96
2023-03-10T23:21:17.046Z,-0.96
2023-03-10T23:24:18.677Z,-0.98
2023-03-10T23:27:21.980Z,-1.00
2023-03-10T23:30:24.096Z,-1.00
2023-03-10T23:33:25.662Z,-0.99
2023-03-10T23:36:27.292Z,-1.00
2023-03-10T23:39:29.080Z,-0.96
2023-03-10T23:42:32.371Z,-1.01
2023-03-10T23:48:48.306Z,-1.03
2023-03-10T23:51:53.277Z,-1.04
2023-03-10T23:54:54.877Z,-1.03
2023-03-10T23:57:58.638Z,-1.06
